KBFL

Meadows Field Airport

Bakersfield, California, USA
METAR KBFL 161354Z AUTO 00000KT 3SM HZ CLR 06/02 A2989 RMK AO2 SLP121 T00610017
Observed Flight Rules
Dec-16 @ 13:54 UTC (42 minutes ago) Marginal Visual Flight Rules
Wind Visibility Clouds Conditions
Calm 3 miles
  • Clear skies
  • Haze
Temperatures Readings
Current 6°C / 43°F
Dewpoint 2°C / 36°F
Humidity 76%
Altimeter 29.89" Hg
Pressure 1012.1 hPa
Elevation 151
METAR KBFL 161354Z AUTO 00000KT 3SM HZ CLR 06/02 A2989 RMK AO2 SLP121 T00610017
Observed Flight Rules
Dec-16 @ 13:54 UTC
(42 minutes ago)
MVFR
Wind Visibility
Calm 3 miles
Clouds
  • Clear skies
Conditions
  • Haze
Temperature Dewpoint
6°C / 43°F 2°C / 36°F
Humidity Altimeter Pressure
76% 29.89" Hg 1012.1 hPa